createdAt,value
2017-10-25T00:00:01.236Z,12.80
2017-10-25T00:01:04.467Z,12.70
2017-10-25T00:02:06.981Z,12.70
2017-10-25T00:03:09.454Z,12.70
2017-10-25T00:04:11.947Z,12.70
2017-10-25T00:05:15.202Z,12.70
2017-10-25T00:06:18.437Z,12.70
2017-10-25T00:07:20.929Z,12.70
2017-10-25T00:08:23.423Z,12.70
2017-10-25T00:09:25.885Z,12.70
2017-10-25T00:10:28.365Z,12.70
2017-10-25T00:11:31.004Z,12.70
2017-10-25T00:12:33.620Z,12.70
2017-10-25T00:13:36.164Z,12.60
2017-10-25T00:14:38.651Z,12.70
2017-10-25T00:15:41.879Z,12.70
2017-10-25T00:16:44.367Z,12.60
2017-10-25T00:17:46.853Z,12.60
2017-10-25T00:18:50.084Z,12.60
2017-10-25T00:19:53.366Z,12.60
2017-10-25T00:20:55.856Z,12.60
2017-10-25T00:21:59.101Z,12.60
2017-10-25T00:23:02.370Z,12.60
2017-10-25T00:24:04.874Z,12.50
2017-10-25T00:25:07.429Z,12.60
2017-10-25T00:26:09.905Z,12.60
2017-10-25T00:27:13.902Z,12.50
2017-10-25T00:28:16.418Z,12.60
2017-10-25T00:29:19.648Z,12.60
2017-10-25T00:30:22.894Z,12.60
2017-10-25T00:31:26.201Z,12.60
2017-10-25T00:32:28.726Z,12.60
2017-10-25T00:33:31.205Z,12.60
2017-10-25T00:34:33.686Z,12.60
2017-10-25T00:35:36.185Z,12.60
2017-10-25T00:36:38.671Z,12.60
2017-10-25T00:37:41.939Z,12.60
2017-10-25T00:38:44.440Z,12.60
2017-10-25T00:39:46.924Z,12.60
2017-10-25T00:40:49.477Z,12.60
2017-10-25T00:41:52.712Z,12.60
2017-10-25T00:42:55.949Z,12.60
2017-10-25T00:43:58.421Z,12.60
2017-10-25T00:45:00.927Z,12.60
2017-10-25T00:46:03.431Z,12.60
2017-10-25T00:47:07.442Z,12.60
2017-10-25T00:48:09.939Z,12.60
2017-10-25T00:49:12.410Z,12.60
2017-10-25T00:50:14.895Z,12.60
2017-10-25T00:51:17.390Z,12.60
2017-10-25T00:52:19.857Z,12.60
2017-10-25T00:53:22.321Z,12.60
2017-10-25T00:54:24.810Z,12.60
2017-10-25T00:55:27.314Z,12.60
2017-10-25T00:56:29.769Z,12.60
2017-10-25T00:57:32.257Z,12.60
2017-10-25T00:58:35.490Z,12.60
2017-10-25T00:59:38.737Z,12.60
2017-10-25T01:00:42.020Z,12.60
2017-10-25T01:01:44.495Z,12.60
2017-10-25T01:02:48.678Z,12.60
2017-10-25T01:03:51.138Z,12.60
2017-10-25T01:04:53.732Z,12.60
2017-10-25T01:05:57.071Z,12.60
2017-10-25T01:06:59.605Z,12.60
2017-10-25T01:08:02.113Z,12.60
2017-10-25T01:09:05.471Z,12.70
2017-10-25T01:10:07.929Z,12.60
2017-10-25T01:11:10.513Z,12.70
2017-10-25T01:12:13.747Z,12.70
2017-10-25T01:13:17.002Z,12.70
2017-10-25T01:14:20.252Z,12.70
2017-10-25T01:15:22.717Z,12.70
2017-10-25T01:16:25.214Z,12.70
2017-10-25T01:17:27.706Z,12.70
2017-10-25T01:18:30.944Z,12.70
2017-10-25T01:19:34.217Z,12.70
2017-10-25T01:20:36.799Z,12.60
2017-10-25T01:21:39.292Z,12.70
2017-10-25T01:22:41.775Z,12.70
2017-10-25T01:23:45.014Z,12.70
2017-10-25T01:24:48.272Z,12.70
2017-10-25T01:25:51.504Z,12.70
2017-10-25T01:26:54.760Z,12.80
2017-10-25T01:27:57.247Z,12.70
2017-10-25T01:28:59.714Z,12.80
2017-10-25T01:30:02.186Z,12.80
2017-10-25T01:31:04.676Z,12.80
2017-10-25T01:32:07.176Z,12.80
2017-10-25T01:33:10.423Z,12.80
2017-10-25T01:34:12.909Z,12.70
2017-10-25T01:35:15.419Z,12.80
2017-10-25T01:36:17.932Z,12.80
2017-10-25T01:37:20.399Z,12.80
2017-10-25T01:38:22.869Z,12.80
2017-10-25T01:39:25.380Z,12.80
2017-10-25T01:40:27.831Z,12.80
2017-10-25T01:41:30.338Z,12.80
2017-10-25T01:42:32.796Z,12.80
2017-10-25T01:43:35.294Z,12.80
2017-10-25T01:44:37.756Z,12.80
2017-10-25T01:45:40.248Z,12.80
2017-10-25T01:46:42.749Z,12.90
2017-10-25T01:47:45.228Z,12.90
2017-10-25T01:48:47.731Z,12.80
2017-10-25T01:49:50.197Z,12.80
2017-10-25T01:50:52.678Z,12.80
2017-10-25T01:51:55.175Z,12.80
2017-10-25T01:52:57.648Z,12.80
2017-10-25T01:54:00.114Z,12.90
2017-10-25T01:55:03.387Z,12.90
2017-10-25T01:56:05.867Z,12.90
2017-10-25T01:57:09.145Z,12.90
2017-10-25T01:58:11.622Z,12.90
2017-10-25T01:59:14.119Z,12.90
2017-10-25T02:00:16.601Z,12.90
2017-10-25T02:01:19.826Z,12.90
2017-10-25T02:02:23.107Z,12.90
2017-10-25T02:03:25.573Z,12.80
2017-10-25T02:04:28.141Z,12.90
2017-10-25T02:05:31.390Z,12.90
2017-10-25T02:06:33.883Z,12.90
2017-10-25T02:07:36.386Z,12.90
2017-10-25T02:08:38.856Z,12.90
2017-10-25T02:09:41.338Z,12.90
2017-10-25T02:10:43.814Z,12.90
2017-10-25T02:11:47.068Z,12.90
2017-10-25T02:12:49.561Z,12.90
2017-10-25T02:13:52.783Z,12.90
2017-10-25T02:14:55.246Z,12.90
2017-10-25T02:15:57.740Z,12.90
2017-10-25T02:17:00.968Z,12.90
2017-10-25T02:18:03.458Z,12.90
2017-10-25T02:19:05.918Z,12.90
2017-10-25T02:20:09.146Z,12.90
2017-10-25T02:21:11.627Z,12.90
2017-10-25T02:22:14.879Z,12.90
2017-10-25T02:23:17.352Z,12.90
2017-10-25T02:24:21.324Z,12.90
2017-10-25T02:25:23.788Z,12.90
2017-10-25T02:26:26.255Z,12.90
2017-10-25T02:27:28.776Z,12.90
2017-10-25T02:28:31.231Z,12.90
2017-10-25T02:29:33.695Z,12.90
2017-10-25T02:30:36.154Z,12.90
2017-10-25T02:31:38.628Z,12.90
2017-10-25T02:32:41.102Z,12.90
2017-10-25T02:33:43.591Z,12.90
2017-10-25T02:34:46.070Z,13.00
2017-10-25T02:35:48.546Z,13.00
2017-10-25T02:36:51.010Z,13.00
2017-10-25T02:37:53.511Z,13.00
2017-10-25T02:38:55.990Z,13.00
2017-10-25T02:39:59.232Z,13.00
2017-10-25T02:42:05.410Z,13.00
2017-10-25T02:43:08.646Z,13.00
2017-10-25T02:44:11.989Z,13.00
2017-10-25T02:45:14.554Z,13.00
2017-10-25T02:46:17.019Z,13.00
2017-10-25T02:47:19.586Z,13.00
2017-10-25T02:48:22.092Z,13.00
2017-10-25T02:49:24.630Z,13.00
2017-10-25T02:50:27.930Z,13.00
2017-10-25T02:51:30.384Z,13.00
2017-10-25T02:52:33.686Z,13.00
2017-10-25T02:53:36.157Z,13.00
2017-10-25T02:54:38.635Z,13.00
2017-10-25T02:55:41.102Z,13.00
2017-10-25T02:56:43.562Z,13.00
2017-10-25T02:57:46.047Z,13.00
2017-10-25T02:58:48.502Z,13.00
2017-10-25T02:59:51.027Z,13.00
2017-10-25T03:00:53.502Z,13.00
2017-10-25T03:01:56.003Z,13.00
2017-10-25T03:02:58.485Z,13.00
2017-10-25T03:04:01.747Z,13.00
2017-10-25T03:05:04.252Z,13.00
2017-10-25T03:06:07.945Z,13.00
2017-10-25T03:07:10.441Z,13.00
2017-10-25T03:08:13.686Z,13.00
2017-10-25T03:09:16.933Z,13.00
2017-10-25T03:10:19.415Z,13.00
2017-10-25T03:11:21.923Z,13.00
2017-10-25T03:12:24.437Z,13.00
2017-10-25T03:13:26.898Z,13.00
2017-10-25T03:14:29.376Z,13.00
2017-10-25T03:15:31.888Z,13.00
2017-10-25T03:16:34.613Z,13.00
2017-10-25T03:17:37.851Z,13.00
2017-10-25T03:18:40.362Z,13.00
2017-10-25T03:19:43.591Z,13.00
2017-10-25T03:20:46.054Z,13.00
2017-10-25T03:21:48.538Z,13.00
2017-10-25T03:22:51.005Z,13.00
2017-10-25T03:23:53.492Z,13.00
2017-10-25T03:24:55.964Z,13.00
2017-10-25T03:25:58.439Z,13.00
2017-10-25T03:27:00.901Z,13.00
2017-10-25T03:28:03.427Z,13.00
2017-10-25T03:29:05.895Z,13.00
2017-10-25T03:30:08.454Z,13.00
2017-10-25T03:31:12.209Z,13.00
2017-10-25T03:32:15.431Z,13.00
2017-10-25T03:33:17.991Z,13.00
2017-10-25T03:34:21.270Z,13.00
2017-10-25T03:35:23.742Z,13.00
2017-10-25T03:36:26.197Z,13.00
2017-10-25T03:37:28.645Z,13.00
2017-10-25T03:38:31.145Z,13.00
2017-10-25T03:39:33.618Z,13.00
2017-10-25T03:40:36.093Z,13.00
2017-10-25T03:41:38.559Z,13.00
2017-10-25T03:42:41.041Z,13.00
2017-10-25T03:43:43.547Z,13.00
2017-10-25T03:44:46.779Z,13.10
2017-10-25T03:45:49.240Z,13.00
2017-10-25T03:46:51.707Z,13.00
2017-10-25T03:47:54.232Z,13.10
2017-10-25T03:48:56.715Z,13.10
2017-10-25T03:49:59.203Z,13.10
2017-10-25T03:51:02.461Z,13.10
2017-10-25T03:52:05.704Z,13.10
2017-10-25T03:53:08.939Z,13.10
2017-10-25T03:54:12.184Z,13.10
2017-10-25T03:55:15.457Z,13.10
2017-10-25T03:56:17.921Z,13.10
2017-10-25T03:57:20.390Z,13.10
2017-10-25T03:58:22.910Z,13.10
2017-10-25T03:59:25.445Z,13.10
2017-10-25T04:00:27.917Z,13.10
2017-10-25T04:01:30.407Z,13.10
2017-10-25T04:02:32.895Z,13.10
2017-10-25T04:03:35.356Z,13.10
2017-10-25T04:04:37.817Z,13.10
2017-10-25T04:05:40.289Z,13.10
2017-10-25T04:06:42.783Z,13.10
2017-10-25T04:07:45.272Z,13.10
2017-10-25T04:08:47.732Z,13.10
2017-10-25T04:09:50.293Z,13.10
2017-10-25T04:10:52.787Z,13.10
2017-10-25T04:11:55.319Z,13.10
2017-10-25T04:12:58.552Z,13.10
2017-10-25T04:14:01.016Z,13.10
2017-10-25T04:15:03.515Z,13.10
2017-10-25T04:16:06.762Z,13.10
2017-10-25T04:17:10.019Z,13.10
2017-10-25T04:18:12.524Z,13.10
2017-10-25T04:19:15.765Z,13.10
2017-10-25T04:20:18.246Z,13.10
2017-10-25T04:21:20.776Z,13.10
2017-10-25T04:22:23.273Z,13.10
2017-10-25T04:23:25.745Z,13.20
2017-10-25T04:24:28.207Z,13.20
2017-10-25T04:25:31.468Z,13.20
2017-10-25T04:26:33.949Z,13.10
2017-10-25T04:27:36.427Z,13.20
2017-10-25T04:28:38.899Z,13.20
2017-10-25T04:29:41.379Z,13.20
2017-10-25T04:30:43.884Z,13.20
2017-10-25T04:31:46.395Z,13.20
2017-10-25T04:32:49.644Z,13.20
2017-10-25T04:33:52.893Z,13.20
2017-10-25T04:34:55.381Z,13.20
2017-10-25T04:35:57.887Z,13.20
2017-10-25T04:37:00.386Z,13.20
2017-10-25T04:38:02.951Z,13.20
2017-10-25T04:39:05.426Z,13.20
2017-10-25T04:40:07.955Z,13.20
2017-10-25T04:41:10.668Z,13.20
2017-10-25T04:42:13.935Z,13.20
2017-10-25T04:43:16.547Z,13.20
2017-10-25T04:44:19.006Z,13.20
2017-10-25T04:45:21.532Z,13.20
2017-10-25T04:46:24.053Z,13.20
2017-10-25T04:47:26.652Z,13.20
2017-10-25T04:48:29.185Z,13.20
2017-10-25T04:49:31.676Z,13.20
2017-10-25T04:50:34.125Z,13.20
2017-10-25T04:51:36.598Z,13.30
2017-10-25T04:52:39.098Z,13.30
2017-10-25T04:53:41.570Z,13.30
2017-10-25T04:54:44.059Z,13.30
2017-10-25T04:55:46.574Z,13.30
2017-10-25T04:56:49.198Z,13.30
2017-10-25T04:57:51.755Z,13.30
2017-10-25T04:58:54.243Z,13.30
2017-10-25T04:59:56.736Z,13.30
2017-10-25T05:01:00.026Z,13.30
2017-10-25T05:02:02.500Z,13.20
2017-10-25T05:03:04.953Z,13.30
2017-10-25T05:04:07.433Z,13.30
2017-10-25T05:05:09.943Z,13.30
2017-10-25T05:06:12.458Z,13.30
2017-10-25T05:07:14.923Z,13.30
2017-10-25T05:08:18.228Z,13.30
2017-10-25T05:09:20.726Z,13.30
2017-10-25T05:10:23.203Z,13.30
2017-10-25T05:11:25.706Z,13.30
2017-10-25T05:12:28.318Z,13.30
2017-10-25T05:13:30.785Z,13.30
2017-10-25T05:14:33.248Z,13.30
2017-10-25T05:15:35.731Z,13.30
2017-10-25T05:16:38.457Z,13.30
2017-10-25T05:17:40.920Z,13.30
2017-10-25T05:18:44.187Z,13.30
2017-10-25T05:19:46.701Z,13.40
2017-10-25T05:20:49.181Z,13.40
2017-10-25T05:21:52.421Z,13.40
2017-10-25T05:22:54.911Z,13.40
2017-10-25T05:23:57.423Z,13.30
2017-10-25T05:24:59.898Z,13.40
2017-10-25T05:26:02.527Z,13.40
2017-10-25T05:27:05.067Z,13.40
2017-10-25T05:28:07.510Z,13.40
2017-10-25T05:29:09.997Z,13.40
2017-10-25T05:30:12.602Z,13.40
2017-10-25T05:31:15.098Z,13.40
2017-10-25T05:32:17.574Z,13.40
2017-10-25T05:33:20.056Z,13.40
2017-10-25T05:34:22.543Z,13.50
2017-10-25T05:35:25.775Z,13.50
2017-10-25T05:36:28.251Z,13.50
2017-10-25T05:37:30.799Z,13.50
2017-10-25T05:38:33.329Z,13.50
2017-10-25T05:39:35.820Z,13.50
2017-10-25T05:40:38.304Z,13.50
2017-10-25T05:41:40.764Z,13.50
2017-10-25T05:42:43.315Z,13.60
2017-10-25T05:43:45.768Z,13.60
2017-10-25T05:44:48.262Z,13.60
2017-10-25T05:45:50.733Z,13.60
2017-10-25T05:46:53.213Z,13.60
2017-10-25T05:47:55.708Z,13.60
2017-10-25T05:48:58.208Z,13.60
2017-10-25T05:50:00.670Z,13.60
2017-10-25T05:51:03.220Z,13.60
2017-10-25T05:52:05.713Z,13.60
2017-10-25T05:53:08.267Z,13.60
2017-10-25T05:54:10.728Z,13.60
2017-10-25T05:55:13.220Z,13.60
2017-10-25T05:56:15.684Z,13.60
2017-10-25T05:57:18.151Z,13.60
2017-10-25T05:58:20.635Z,13.60
2017-10-25T05:59:23.915Z,13.60
2017-10-25T06:00:26.385Z,13.60
2017-10-25T06:01:28.853Z,13.60
2017-10-25T06:02:31.339Z,13.60
2017-10-25T06:03:33.819Z,13.60
2017-10-25T06:04:36.312Z,13.60
2017-10-25T06:05:39.544Z,13.70
2017-10-25T06:06:42.395Z,13.60
2017-10-25T06:07:45.650Z,13.70
2017-10-25T06:08:48.113Z,13.70
2017-10-25T06:09:50.622Z,13.70
2017-10-25T06:10:53.096Z,13.70
2017-10-25T06:11:55.582Z,13.70
2017-10-25T06:12:58.175Z,13.70
2017-10-25T06:14:01.019Z,13.70
2017-10-25T06:15:03.521Z,13.70
2017-10-25T06:16:06.747Z,13.60
2017-10-25T06:17:09.216Z,13.60
2017-10-25T06:18:11.704Z,13.60
2017-10-25T06:19:14.957Z,13.60
2017-10-25T06:20:18.194Z,13.60
2017-10-25T06:21:21.439Z,13.60
2017-10-25T06:22:24.691Z,13.60
2017-10-25T06:23:27.238Z,13.60
2017-10-25T06:24:29.695Z,13.60
2017-10-25T06:25:32.160Z,13.60
2017-10-25T06:26:35.393Z,13.60
2017-10-25T06:27:38.663Z,13.60
2017-10-25T06:28:41.164Z,13.60
2017-10-25T06:29:44.438Z,13.60
2017-10-25T06:30:46.932Z,13.60
2017-10-25T06:31:50.189Z,13.60
2017-10-25T06:32:52.764Z,13.60
2017-10-25T06:33:55.267Z,13.60
2017-10-25T06:34:57.827Z,13.60
2017-10-25T06:36:00.300Z,13.60
2017-10-25T06:37:02.805Z,13.60
2017-10-25T06:38:06.045Z,13.60
2017-10-25T06:39:09.316Z,13.60
2017-10-25T06:40:11.803Z,13.60
2017-10-25T06:41:14.250Z,13.60
2017-10-25T06:42:16.754Z,13.70
2017-10-25T06:43:19.275Z,13.70
2017-10-25T06:44:21.756Z,13.70
2017-10-25T06:45:24.268Z,13.70
2017-10-25T06:46:26.777Z,13.70
2017-10-25T06:47:29.262Z,13.70
2017-10-25T06:48:31.756Z,13.70
2017-10-25T06:49:34.253Z,13.70
2017-10-25T06:50:37.493Z,13.70
2017-10-25T06:51:39.999Z,13.70
2017-10-25T06:52:43.235Z,13.70
2017-10-25T06:53:45.709Z,13.70
2017-10-25T06:54:48.177Z,13.70
2017-10-25T06:55:50.664Z,13.70
2017-10-25T06:56:53.122Z,13.80
2017-10-25T06:57:55.611Z,13.80
2017-10-25T06:58:58.072Z,13.80
2017-10-25T07:00:00.531Z,13.80
2017-10-25T07:01:03.906Z,13.80
2017-10-25T07:02:06.388Z,13.80
2017-10-25T07:03:09.649Z,13.80
2017-10-25T07:04:12.893Z,13.80
2017-10-25T07:05:16.116Z,13.80
2017-10-25T07:06:18.576Z,13.80
2017-10-25T07:07:21.048Z,13.80
2017-10-25T07:08:23.572Z,13.80
2017-10-25T07:09:26.836Z,13.90
2017-10-25T07:10:30.080Z,13.90
2017-10-25T07:11:33.314Z,13.90
2017-10-25T07:12:36.599Z,13.90
2017-10-25T07:13:39.063Z,13.90
2017-10-25T07:14:41.517Z,14.00
2017-10-25T07:15:44.816Z,14.00
2017-10-25T07:16:47.296Z,14.00
2017-10-25T07:17:50.540Z,14.10
2017-10-25T07:18:53.054Z,14.00
2017-10-25T07:19:56.284Z,14.10
2017-10-25T07:20:58.760Z,14.10
2017-10-25T07:22:01.224Z,14.10
2017-10-25T07:23:03.683Z,14.10
2017-10-25T07:24:06.176Z,14.10
2017-10-25T07:25:09.447Z,14.20
2017-10-25T07:26:11.919Z,14.20
2017-10-25T07:27:14.384Z,14.20
2017-10-25T07:28:17.643Z,14.20
2017-10-25T07:29:20.104Z,14.20
2017-10-25T07:30:22.594Z,14.30
2017-10-25T07:31:25.099Z,14.20
2017-10-25T07:32:28.325Z,14.30
2017-10-25T07:33:31.622Z,14.20
2017-10-25T07:34:34.086Z,14.30
2017-10-25T07:35:36.605Z,14.30
2017-10-25T07:36:39.088Z,14.30
2017-10-25T07:37:41.606Z,14.30
2017-10-25T07:38:44.086Z,14.30
2017-10-25T07:39:46.559Z,14.30
2017-10-25T07:40:49.050Z,14.30
2017-10-25T07:41:51.540Z,14.30
2017-10-25T07:42:54.031Z,14.30
2017-10-25T07:43:56.510Z,14.40
2017-10-25T07:44:59.016Z,14.30
2017-10-25T07:46:01.531Z,14.40
2017-10-25T07:47:04.026Z,14.40
2017-10-25T07:48:06.519Z,14.40
2017-10-25T07:49:08.990Z,14.40
2017-10-25T07:50:11.457Z,14.50
2017-10-25T07:51:13.911Z,14.50
2017-10-25T07:52:17.143Z,14.60
2017-10-25T07:53:20.404Z,14.60
2017-10-25T07:54:23.647Z,14.60
2017-10-25T07:55:26.878Z,14.60
2017-10-25T07:56:30.109Z,14.60
2017-10-25T07:57:32.589Z,14.60
2017-10-25T07:58:35.084Z,14.60
2017-10-25T07:59:38.321Z,14.70
2017-10-25T08:00:41.569Z,14.60
2017-10-25T08:01:44.836Z,14.70
2017-10-25T08:02:47.298Z,14.60
2017-10-25T08:03:49.787Z,14.60
2017-10-25T08:04:52.267Z,14.70
2017-10-25T08:05:54.909Z,14.70
2017-10-25T08:06:58.153Z,14.70
2017-10-25T08:08:01.392Z,14.70
2017-10-25T08:09:04.664Z,14.70
2017-10-25T08:10:07.168Z,14.70
2017-10-25T08:11:10.422Z,14.70
2017-10-25T08:12:12.956Z,14.70
2017-10-25T08:13:15.454Z,14.70
2017-10-25T08:14:18.700Z,14.80
2017-10-25T08:15:21.957Z,14.80
2017-10-25T08:16:24.549Z,14.80
2017-10-25T08:17:27.004Z,14.90
2017-10-25T08:18:29.455Z,14.80
2017-10-25T08:19:31.960Z,14.90
2017-10-25T08:20:34.427Z,14.90
2017-10-25T08:21:36.924Z,14.90
2017-10-25T08:22:39.403Z,15.00
2017-10-25T08:23:41.855Z,15.00
2017-10-25T08:24:44.340Z,15.00
2017-10-25T08:25:46.901Z,15.00
2017-10-25T08:26:49.427Z,14.90
2017-10-25T08:27:51.929Z,15.00
2017-10-25T08:28:54.400Z,15.00
2017-10-25T08:29:56.903Z,15.00
2017-10-25T08:31:00.117Z,15.00
2017-10-25T08:32:03.464Z,15.00
2017-10-25T08:33:06.052Z,15.00
2017-10-25T08:34:08.521Z,15.00
2017-10-25T08:35:10.979Z,15.00
2017-10-25T08:36:13.604Z,15.00
2017-10-25T08:37:16.777Z,15.00
2017-10-25T08:38:19.223Z,15.00
2017-10-25T08:39:21.708Z,15.10
2017-10-25T08:40:24.258Z,15.10
2017-10-25T08:41:27.623Z,15.10
2017-10-25T08:42:30.930Z,15.20
2017-10-25T08:43:33.400Z,15.10
2017-10-25T08:44:35.859Z,15.20
2017-10-25T08:45:38.329Z,15.20
2017-10-25T08:46:40.835Z,15.20
2017-10-25T08:47:43.346Z,15.20
2017-10-25T08:48:45.853Z,15.30
2017-10-25T08:49:49.070Z,15.30
2017-10-25T08:50:52.329Z,15.30
2017-10-25T08:51:55.545Z,15.30
2017-10-25T08:52:59.159Z,15.30
2017-10-25T08:54:01.630Z,15.30
2017-10-25T08:55:04.908Z,15.40
2017-10-25T08:56:07.411Z,15.40
2017-10-25T08:57:10.642Z,15.40
2017-10-25T08:58:13.912Z,15.50
2017-10-25T08:59:16.383Z,15.40
2017-10-25T09:00:18.871Z,15.50
2017-10-25T09:01:21.333Z,15.50
2017-10-25T09:02:23.834Z,15.50
2017-10-25T09:03:26.343Z,15.50
2017-10-25T09:04:28.817Z,15.50
2017-10-25T09:05:32.191Z,15.50
2017-10-25T09:06:34.690Z,15.50
2017-10-25T09:07:37.148Z,15.50
2017-10-25T09:08:39.990Z,15.50
2017-10-25T09:09:42.486Z,15.50
2017-10-25T09:10:45.877Z,15.50
2017-10-25T09:11:48.354Z,15.50
2017-10-25T09:12:51.594Z,15.60
2017-10-25T09:13:54.850Z,15.60
2017-10-25T09:14:58.087Z,15.60
2017-10-25T09:16:01.321Z,15.60
2017-10-25T09:17:03.830Z,15.60
2017-10-25T09:18:06.330Z,15.60
2017-10-25T09:19:08.963Z,15.60
2017-10-25T09:20:11.431Z,15.60
2017-10-25T09:21:14.712Z,15.60
2017-10-25T09:22:17.286Z,15.60
2017-10-25T09:23:19.854Z,15.70
2017-10-25T09:24:22.404Z,15.60
2017-10-25T09:25:25.079Z,15.70
2017-10-25T09:26:27.631Z,15.70
2017-10-25T09:27:30.120Z,15.70
2017-10-25T09:28:32.646Z,15.70
2017-10-25T09:29:35.137Z,15.70
2017-10-25T09:30:37.610Z,15.70
2017-10-25T09:31:40.848Z,15.80
2017-10-25T09:32:43.326Z,15.80
2017-10-25T09:33:45.778Z,15.80
2017-10-25T09:34:48.915Z,15.80
2017-10-25T09:35:51.393Z,15.80
2017-10-25T09:36:53.878Z,15.80
2017-10-25T09:37:56.343Z,15.80
2017-10-25T09:38:58.834Z,15.90
2017-10-25T09:40:01.346Z,15.90
2017-10-25T09:41:03.823Z,16.00
2017-10-25T09:42:06.310Z,16.00
2017-10-25T09:43:09.562Z,16.10
2017-10-25T09:44:12.799Z,16.10
2017-10-25T09:45:15.308Z,16.10
2017-10-25T09:46:17.793Z,16.10
2017-10-25T09:47:20.274Z,16.20
2017-10-25T09:48:23.490Z,16.30
2017-10-25T09:49:25.970Z,16.20
2017-10-25T09:50:28.485Z,16.30
2017-10-25T09:51:31.716Z,16.30
2017-10-25T09:52:34.968Z,16.30
2017-10-25T09:53:38.222Z,16.30
2017-10-25T09:54:40.684Z,16.30
2017-10-25T09:55:43.266Z,16.30
2017-10-25T09:56:45.821Z,16.40
2017-10-25T09:57:48.291Z,16.30
2017-10-25T09:58:50.991Z,16.40
2017-10-25T09:59:53.483Z,16.30
2017-10-25T10:00:56.695Z,16.40
2017-10-25T10:01:59.943Z,16.40
2017-10-25T10:03:03.211Z,16.50
2017-10-25T10:04:05.728Z,16.40
2017-10-25T10:05:08.239Z,16.50
2017-10-25T10:06:11.508Z,16.50
2017-10-25T10:07:13.991Z,16.50
2017-10-25T10:08:16.506Z,16.50
2017-10-25T10:09:19.069Z,16.50
2017-10-25T10:10:22.326Z,16.50
2017-10-25T10:11:24.852Z,16.50
2017-10-25T10:12:27.347Z,16.50
2017-10-25T10:13:30.582Z,16.60
2017-10-25T10:14:33.122Z,16.50
2017-10-25T10:15:36.345Z,16.50
2017-10-25T10:16:38.889Z,16.50
2017-10-25T10:17:42.130Z,16.50
2017-10-25T10:18:45.362Z,16.50
2017-10-25T10:19:48.598Z,16.50
2017-10-25T10:20:51.114Z,16.50
2017-10-25T10:21:53.627Z,16.50
2017-10-25T10:22:56.112Z,16.50
2017-10-25T10:23:58.576Z,16.60
2017-10-25T10:25:01.050Z,16.60
2017-10-25T10:26:04.312Z,16.60
2017-10-25T10:27:06.911Z,16.60
2017-10-25T10:28:09.452Z,16.60
2017-10-25T10:29:12.724Z,16.70
2017-10-25T10:30:15.194Z,16.70
2017-10-25T10:31:17.664Z,16.60
2017-10-25T10:32:20.151Z,16.70
2017-10-25T10:33:23.757Z,16.70
2017-10-25T10:34:26.656Z,16.70
2017-10-25T10:35:29.118Z,16.70
2017-10-25T10:36:31.595Z,16.70
2017-10-25T10:37:34.822Z,16.80
2017-10-25T10:38:38.067Z,16.80
2017-10-25T10:39:40.568Z,16.80
2017-10-25T10:40:43.040Z,16.90
2017-10-25T10:41:45.493Z,16.90
2017-10-25T10:42:47.962Z,16.90
2017-10-25T10:43:51.642Z,16.90
2017-10-25T10:44:54.126Z,16.80
2017-10-25T10:45:56.591Z,16.90
2017-10-25T10:46:59.053Z,16.90
2017-10-25T10:48:01.532Z,16.80
2017-10-25T10:49:04.760Z,16.90
2017-10-25T10:50:07.286Z,16.80
2017-10-25T10:51:10.549Z,16.90
2017-10-25T10:52:13.853Z,16.90
2017-10-25T10:53:16.573Z,16.80
2017-10-25T10:54:19.200Z,16.90
2017-10-25T10:55:21.682Z,16.90
2017-10-25T10:56:24.172Z,16.90
2017-10-25T10:57:26.634Z,16.90
2017-10-25T10:58:29.112Z,16.90
2017-10-25T10:59:31.587Z,16.90
2017-10-25T11:00:34.077Z,16.90
2017-10-25T11:01:36.536Z,16.90
2017-10-25T11:02:39.061Z,17.00
2017-10-25T11:03:41.546Z,16.90
2017-10-25T11:04:44.813Z,17.00
2017-10-25T11:05:48.175Z,16.90
2017-10-25T11:06:50.646Z,16.90
2017-10-25T11:07:53.157Z,16.90
2017-10-25T11:08:55.611Z,16.90
2017-10-25T11:09:58.082Z,16.90
2017-10-25T11:11:00.621Z,16.90
2017-10-25T11:12:03.093Z,17.00
2017-10-25T11:13:06.378Z,17.00
2017-10-25T11:14:08.897Z,17.00
2017-10-25T11:15:11.347Z,17.00
2017-10-25T11:16:13.804Z,17.00
2017-10-25T11:17:16.314Z,17.00
2017-10-25T11:18:18.827Z,17.00
2017-10-25T11:19:21.283Z,17.00
2017-10-25T11:20:24.536Z,17.00
2017-10-25T11:21:27.751Z,17.00
2017-10-25T11:22:30.213Z,17.00
2017-10-25T11:23:32.694Z,17.00
2017-10-25T11:24:35.163Z,17.00
2017-10-25T11:25:37.619Z,17.10
2017-10-25T11:26:40.074Z,17.10
2017-10-25T11:27:42.638Z,17.10
2017-10-25T11:28:45.215Z,17.10
2017-10-25T11:29:47.672Z,17.10
2017-10-25T11:30:50.904Z,17.20
2017-10-25T11:31:54.867Z,17.20
2017-10-25T11:32:58.113Z,17.20
2017-10-25T11:34:01.399Z,17.20
2017-10-25T11:35:03.860Z,17.20
2017-10-25T11:36:06.310Z,17.20
2017-10-25T11:37:09.542Z,17.20
2017-10-25T11:38:12.003Z,17.20
2017-10-25T11:39:14.513Z,17.20
2017-10-25T11:40:17.737Z,17.30
2017-10-25T11:41:20.980Z,17.30
2017-10-25T11:42:24.201Z,17.40
2017-10-25T11:43:26.758Z,17.30
2017-10-25T11:44:30.102Z,17.50
2017-10-25T11:45:33.338Z,17.50
2017-10-25T11:46:36.628Z,17.60
2017-10-25T11:47:39.088Z,17.60
2017-10-25T11:48:41.554Z,17.60
2017-10-25T11:49:44.076Z,17.60
2017-10-25T11:50:46.546Z,17.60
2017-10-25T11:51:49.002Z,17.60
2017-10-25T11:52:51.463Z,17.60
2017-10-25T11:53:53.942Z,17.60
2017-10-25T11:54:56.436Z,17.70
2017-10-25T11:55:58.906Z,17.80
2017-10-25T11:57:02.150Z,17.90
2017-10-25T11:58:05.370Z,18.00
2017-10-25T11:59:08.602Z,18.00
2017-10-25T12:00:11.090Z,18.00
2017-10-25T12:01:13.604Z,18.00
2017-10-25T12:02:16.065Z,18.00
2017-10-25T12:03:18.532Z,18.00
2017-10-25T12:04:21.782Z,18.00
2017-10-25T12:05:25.035Z,18.00
2017-10-25T12:06:27.538Z,17.90
2017-10-25T12:07:30.008Z,18.00
2017-10-25T12:08:33.545Z,18.00
2017-10-25T12:09:36.007Z,17.90
2017-10-25T12:10:38.483Z,17.90
2017-10-25T12:11:41.192Z,17.90
2017-10-25T12:12:43.745Z,17.90
2017-10-25T12:13:46.233Z,17.90
2017-10-25T12:14:48.746Z,17.80
2017-10-25T12:15:51.207Z,17.80
2017-10-25T12:16:54.455Z,17.70
2017-10-25T12:17:56.913Z,17.70
2017-10-25T12:18:59.397Z,17.70
2017-10-25T12:20:02.624Z,17.60
2017-10-25T12:21:05.859Z,17.60
2017-10-25T12:22:08.356Z,17.60
2017-10-25T12:23:10.852Z,17.60
2017-10-25T12:24:13.339Z,17.60
2017-10-25T12:25:15.877Z,17.60
2017-10-25T12:26:19.115Z,17.70
2017-10-25T12:27:22.347Z,17.70
2017-10-25T12:28:24.888Z,17.60
2017-10-25T12:29:28.118Z,17.70
2017-10-25T12:30:31.358Z,17.70
2017-10-25T12:31:33.828Z,17.70
2017-10-25T12:32:36.289Z,17.70
2017-10-25T12:33:38.861Z,17.60
2017-10-25T12:34:41.331Z,17.60
2017-10-25T12:35:43.798Z,17.60
2017-10-25T12:36:47.021Z,17.70
2017-10-25T12:37:49.472Z,17.60
2017-10-25T12:38:52.740Z,17.70
2017-10-25T12:39:55.221Z,17.70
2017-10-25T12:40:58.438Z,17.70
2017-10-25T12:42:00.919Z,17.70
2017-10-25T12:43:03.386Z,17.70
2017-10-25T12:44:05.953Z,17.70
2017-10-25T12:45:09.191Z,17.70
2017-10-25T12:46:12.447Z,17.70
2017-10-25T12:47:14.918Z,17.60
2017-10-25T12:48:17.372Z,17.70
2017-10-25T12:49:19.855Z,17.70
2017-10-25T12:50:22.317Z,17.70
2017-10-25T12:51:24.828Z,17.70
2017-10-25T12:52:27.286Z,17.80
2017-10-25T12:53:30.516Z,17.80
2017-10-25T12:54:32.999Z,17.70
2017-10-25T12:55:35.462Z,17.80
2017-10-25T12:56:38.027Z,17.80
2017-10-25T12:57:41.255Z,17.90
2017-10-25T12:58:43.707Z,17.90
2017-10-25T12:59:46.229Z,18.00
2017-10-25T13:00:48.770Z,18.00
2017-10-25T13:01:51.254Z,18.00
2017-10-25T13:02:53.799Z,18.10
2017-10-25T13:03:56.273Z,18.10
2017-10-25T13:04:58.780Z,18.10
2017-10-25T13:06:01.265Z,18.10
2017-10-25T13:07:03.766Z,18.10
2017-10-25T13:08:07.047Z,18.10
2017-10-25T13:09:09.527Z,18.10
2017-10-25T13:10:14.520Z,18.10
2017-10-25T13:11:18.062Z,18.10
2017-10-25T13:12:22.182Z,18.10
2017-10-25T13:13:25.540Z,18.00
2017-10-25T13:14:31.826Z,18.00
2017-10-25T13:15:34.666Z,18.00
2017-10-25T13:16:41.210Z,18.00
2017-10-25T13:17:44.433Z,17.90
2017-10-25T13:18:46.941Z,17.90
2017-10-25T13:19:50.180Z,17.90
2017-10-25T13:20:52.651Z,17.90
2017-10-25T13:21:55.139Z,17.90
2017-10-25T13:22:57.629Z,17.90
2017-10-25T13:24:00.911Z,17.90
2017-10-25T13:25:03.416Z,17.90
2017-10-25T13:26:05.908Z,17.90
2017-10-25T13:27:09.125Z,18.00
2017-10-25T13:28:11.597Z,17.90